createdAt,value
2023-04-19T00:02:25.900Z,14.33
2023-04-19T00:04:53.640Z,14.30
2023-04-19T00:07:21.292Z,14.32
2023-04-19T00:09:48.509Z,14.34
2023-04-19T00:12:15.986Z,14.35
2023-04-19T00:14:43.266Z,14.35
2023-04-19T00:17:11.803Z,14.37
2023-04-19T00:19:39.284Z,14.35
2023-04-19T00:22:06.917Z,14.34
2023-04-19T00:24:34.355Z,14.29
2023-04-19T00:27:02.381Z,14.31
2023-04-19T00:29:30.022Z,14.29
2023-04-19T00:31:57.502Z,14.25
2023-04-19T00:34:24.880Z,14.24
2023-04-19T00:36:52.416Z,14.22
2023-04-19T00:39:19.660Z,14.20
2023-04-19T00:41:47.199Z,14.22
2023-04-19T00:44:14.699Z,14.17
2023-04-19T00:46:44.033Z,14.09
2023-04-19T00:49:11.537Z,14.02
2023-04-19T00:51:39.257Z,13.94
2023-04-19T00:54:08.307Z,13.87
2023-04-19T00:56:36.139Z,13.66
2023-04-19T00:59:03.414Z,13.64
2023-04-19T01:01:31.056Z,13.65
2023-04-19T01:03:58.943Z,13.69
2023-04-19T01:06:28.242Z,13.72
2023-04-19T01:08:56.332Z,13.72
2023-04-19T01:11:25.041Z,13.72
2023-04-19T01:13:52.470Z,13.76
2023-04-19T01:16:20.219Z,13.73
2023-04-19T01:18:47.733Z,13.73
2023-04-19T01:21:15.923Z,13.76
2023-04-19T01:23:43.351Z,13.74
2023-04-19T01:26:11.003Z,13.68
2023-04-19T01:28:38.294Z,13.62
2023-04-19T01:31:05.931Z,13.57
2023-04-19T01:33:33.261Z,13.48
2023-04-19T01:36:00.755Z,13.52
2023-04-19T01:38:28.114Z,13.53
2023-04-19T01:40:57.388Z,13.54
2023-04-19T01:43:24.636Z,13.52
2023-04-19T01:45:52.304Z,13.53
2023-04-19T01:48:19.682Z,13.51
2023-04-19T01:50:47.241Z,13.51
2023-04-19T01:53:14.478Z,13.51
2023-04-19T01:55:42.644Z,13.47
2023-04-19T01:58:10.070Z,13.51
2023-04-19T02:00:37.661Z,13.47
2023-04-19T02:03:05.183Z,13.49
2023-04-19T02:05:32.940Z,13.49
2023-04-19T02:08:01.582Z,13.44
2023-04-19T02:10:29.161Z,13.39
2023-04-19T02:12:56.429Z,13.40
2023-04-19T02:15:24.014Z,13.38
2023-04-19T02:17:51.303Z,13.38
2023-04-19T02:20:18.888Z,13.35
2023-04-19T02:22:47.922Z,13.31
2023-04-19T02:25:16.788Z,13.29
2023-04-19T02:27:44.046Z,13.22
2023-04-19T02:30:12.231Z,13.16
2023-04-19T02:32:39.578Z,13.14
2023-04-19T02:35:07.678Z,13.15
2023-04-19T02:37:34.928Z,13.16
2023-04-19T02:40:02.500Z,13.17
2023-04-19T02:42:29.696Z,13.16
2023-04-19T02:44:57.417Z,13.14
2023-04-19T02:47:24.753Z,13.12
2023-04-19T02:49:52.355Z,13.10
2023-04-19T02:52:19.624Z,13.08
2023-04-19T02:54:47.124Z,13.05
2023-04-19T02:57:14.343Z,13.04
2023-04-19T02:59:41.857Z,12.97
2023-04-19T03:02:09.184Z,13.01
2023-04-19T03:04:36.772Z,12.92
2023-04-19T03:07:04.061Z,12.62
2023-04-19T03:09:31.571Z,12.42
2023-04-19T03:11:58.776Z,12.23
2023-04-19T03:14:26.313Z,12.03
2023-04-19T03:16:53.500Z,12.24
2023-04-19T03:19:21.109Z,12.19
2023-04-19T03:21:48.489Z,12.09
2023-04-19T03:24:16.399Z,12.01
2023-04-19T03:26:43.755Z,11.97
2023-04-19T03:29:11.276Z,12.05
2023-04-19T03:31:38.624Z,11.98
2023-04-19T03:34:06.179Z,11.94
2023-04-19T03:36:33.392Z,11.69
2023-04-19T03:39:02.678Z,11.43
2023-04-19T03:41:29.959Z,11.65
2023-04-19T03:43:58.394Z,11.50
2023-04-19T03:46:26.166Z,11.54
2023-04-19T03:48:54.089Z,11.55
2023-04-19T03:51:21.347Z,11.53
2023-04-19T03:53:48.864Z,11.57
2023-04-19T03:56:16.108Z,11.48
2023-04-19T03:58:43.616Z,11.63
2023-04-19T04:01:21.987Z,11.39
2023-04-19T04:03:49.933Z,11.41
2023-04-19T04:06:17.393Z,11.42
2023-04-19T04:08:44.925Z,11.73
2023-04-19T04:11:12.242Z,11.55
2023-04-19T04:13:39.780Z,11.29
2023-04-19T04:16:07.206Z,11.28
2023-04-19T04:18:35.079Z,11.44
2023-04-19T04:21:02.290Z,11.29
2023-04-19T04:23:29.771Z,11.37
2023-04-19T04:26:02.568Z,11.41
2023-04-19T04:28:30.983Z,11.23
2023-04-19T04:31:00.361Z,11.30
2023-04-19T04:33:28.640Z,11.44
2023-04-19T04:35:57.913Z,11.66
2023-04-19T04:38:25.815Z,11.63
2023-04-19T04:40:55.054Z,11.55
2023-04-19T04:43:25.879Z,11.65
2023-04-19T04:45:56.971Z,11.65
2023-04-19T04:48:25.120Z,11.75
2023-04-19T04:50:52.333Z,11.77
2023-04-19T04:53:20.436Z,11.85
2023-04-19T04:55:47.734Z,12.05
2023-04-19T04:58:15.330Z,12.18
2023-04-19T05:00:42.553Z,12.34
2023-04-19T05:03:10.286Z,12.59
2023-04-19T05:05:37.707Z,12.78
2023-04-19T05:08:05.447Z,12.92
2023-04-19T05:10:32.796Z,12.97
2023-04-19T05:13:01.803Z,13.06
2023-04-19T05:15:29.076Z,13.19
2023-04-19T05:17:56.669Z,13.27
2023-04-19T05:20:23.900Z,13.23
2023-04-19T05:22:51.458Z,13.20
2023-04-19T05:25:18.646Z,13.34
2023-04-19T05:27:46.307Z,13.59
2023-04-19T05:30:13.756Z,13.63
2023-04-19T05:32:42.266Z,13.64
2023-04-19T05:35:10.497Z,13.54
2023-04-19T05:37:39.207Z,13.53
2023-04-19T05:40:10.094Z,13.48
2023-04-19T05:42:38.641Z,13.51
2023-04-19T05:45:07.487Z,13.33
2023-04-19T05:47:37.437Z,13.24
2023-04-19T05:50:05.960Z,13.24
2023-04-19T05:52:33.866Z,13.22
2023-04-19T05:55:01.646Z,13.05
2023-04-19T05:57:29.215Z,13.02
2023-04-19T05:59:56.492Z,13.03
2023-04-19T06:02:24.145Z,12.87
2023-04-19T06:04:51.719Z,12.53
2023-04-19T06:07:31.126Z,12.21
2023-04-19T06:10:01.858Z,12.09
2023-04-19T06:12:29.405Z,11.85
2023-04-19T06:14:56.770Z,11.88
2023-04-19T06:17:25.686Z,11.97
2023-04-19T06:19:54.341Z,11.98
2023-04-19T06:22:22.157Z,11.53
2023-04-19T06:24:49.828Z,11.70
2023-04-19T06:27:17.817Z,11.77
2023-04-19T06:29:45.138Z,11.58
2023-04-19T06:32:12.814Z,11.53
2023-04-19T06:34:40.093Z,11.77
2023-04-19T06:37:07.619Z,12.17
2023-04-19T06:39:35.428Z,12.17
2023-04-19T06:42:03.584Z,12.12
2023-04-19T06:44:30.842Z,11.99
2023-04-19T06:46:58.385Z,12.26
2023-04-19T06:49:25.644Z,12.49
2023-04-19T06:51:53.486Z,11.70
2023-04-19T06:54:20.876Z,12.07
2023-04-19T06:56:50.318Z,12.61
2023-04-19T06:59:20.586Z,12.50
2023-04-19T07:01:49.023Z,12.50
2023-04-19T07:04:17.906Z,12.39
2023-04-19T07:06:52.343Z,12.83
2023-04-19T07:09:19.652Z,12.40
2023-04-19T07:11:47.968Z,12.72
2023-04-19T07:14:15.531Z,12.64
2023-04-19T07:16:43.245Z,12.52
2023-04-19T07:19:10.593Z,12.53
2023-04-19T07:21:39.540Z,12.64
2023-04-19T07:24:09.798Z,12.89
2023-04-19T07:26:37.579Z,12.85
2023-04-19T07:29:04.830Z,11.96
2023-04-19T07:31:32.437Z,11.68
2023-04-19T07:36:27.860Z,11.72
2023-04-19T07:38:55.180Z,11.95
2023-04-19T07:41:22.711Z,11.97
2023-04-19T07:43:49.910Z,12.11
2023-04-19T07:46:17.696Z,11.96
2023-04-19T07:48:45.315Z,11.75
2023-04-19T07:51:17.079Z,11.72
2023-04-19T07:53:45.040Z,11.67
2023-04-19T07:56:13.216Z,11.79
2023-04-19T07:58:41.579Z,12.00
2023-04-19T08:01:09.386Z,12.17
2023-04-19T08:03:37.901Z,12.19
2023-04-19T08:06:09.984Z,12.06
2023-04-19T08:08:37.563Z,12.36
2023-04-19T08:11:06.318Z,12.41
2023-04-19T08:13:33.624Z,12.66
2023-04-19T08:18:33.245Z,12.71
2023-04-19T08:21:00.923Z,13.04
2023-04-19T08:23:34.900Z,12.99
2023-04-19T08:26:09.127Z,13.51
2023-04-19T08:28:36.363Z,13.74
2023-04-19T08:31:10.384Z,14.13
2023-04-19T08:33:37.707Z,14.75
2023-04-19T08:36:05.670Z,14.82
2023-04-19T08:38:32.917Z,15.42
2023-04-19T08:41:01.762Z,16.04
2023-04-19T08:43:33.695Z,16.74
2023-04-19T08:46:04.100Z,17.43
2023-04-19T08:48:36.649Z,18.41
2023-04-19T08:51:06.058Z,19.19
2023-04-19T08:53:37.836Z,19.03
2023-04-19T08:56:17.896Z,18.08
2023-04-19T09:01:36.734Z,16.22
2023-04-19T09:04:21.112Z,15.83
2023-04-19T09:06:55.342Z,16.38
2023-04-19T09:11:58.324Z,18.09
2023-04-19T09:14:27.421Z,18.26
2023-04-19T09:17:12.679Z,19.40
2023-04-19T09:19:48.929Z,18.77
2023-04-19T09:22:17.052Z,18.51
2023-04-19T09:27:37.462Z,17.94
2023-04-19T09:30:10.866Z,18.01
2023-04-19T09:32:48.610Z,17.44
2023-04-19T09:35:16.893Z,16.67
2023-04-19T09:38:06.117Z,16.53
2023-04-19T09:40:34.541Z,16.59
2023-04-19T09:43:17.878Z,16.43
2023-04-19T09:45:51.731Z,15.99
2023-04-19T09:48:19.311Z,16.30
2023-04-19T09:50:57.463Z,16.69
2023-04-19T09:53:34.768Z,16.38
2023-04-19T09:56:04.190Z,16.20
2023-04-19T09:58:42.515Z,15.98
2023-04-19T10:01:19.176Z,15.39
2023-04-19T10:03:50.686Z,15.21
2023-04-19T10:08:55.050Z,14.60
2023-04-19T10:11:23.068Z,14.34
2023-04-19T10:13:57.270Z,14.17
2023-04-19T10:16:25.550Z,14.09
2023-04-19T10:18:54.614Z,13.95
2023-04-19T10:21:22.776Z,13.76
2023-04-19T10:23:50.956Z,13.65
2023-04-19T10:26:18.306Z,13.69
2023-04-19T10:28:47.972Z,13.74
2023-04-19T10:31:15.399Z,13.74
2023-04-19T10:33:42.979Z,13.79
2023-04-19T10:36:15.016Z,14.32
2023-04-19T10:38:48.298Z,14.94
2023-04-19T10:41:18.642Z,15.28
2023-04-19T10:43:55.431Z,15.44
2023-04-19T10:46:23.151Z,15.42
2023-04-19T10:49:02.453Z,15.31
2023-04-19T10:51:44.317Z,15.10
2023-04-19T10:54:34.177Z,14.75
2023-04-19T10:57:04.733Z,14.36
2023-04-19T10:59:34.202Z,14.34
2023-04-19T11:02:25.079Z,14.16
2023-04-19T11:04:53.169Z,14.07
2023-04-19T11:07:23.902Z,13.96
2023-04-19T11:09:52.639Z,13.83
2023-04-19T11:12:21.696Z,13.85
2023-04-19T11:14:57.533Z,13.73
2023-04-19T11:17:32.173Z,13.68
2023-04-19T11:20:09.394Z,13.57
2023-04-19T11:22:47.460Z,13.58
2023-04-19T11:25:19.334Z,13.53
2023-04-19T11:27:51.102Z,13.24
2023-04-19T11:30:23.007Z,13.33
2023-04-19T11:32:55.877Z,13.28
2023-04-19T11:35:26.744Z,13.39
2023-04-19T11:37:56.585Z,13.20
2023-04-19T11:40:26.331Z,13.43
2023-04-19T11:43:01.019Z,13.49
2023-04-19T11:45:39.809Z,13.56
2023-04-19T11:48:18.039Z,13.52
2023-04-19T11:50:49.301Z,13.43
2023-04-19T11:53:25.658Z,13.43
2023-04-19T11:56:05.616Z,13.31
2023-04-19T11:58:49.892Z,13.14
2023-04-19T12:01:20.708Z,13.27
2023-04-19T12:03:54.141Z,13.38
2023-04-19T12:06:32.027Z,13.29
2023-04-19T12:08:59.432Z,13.39
2023-04-19T12:11:50.261Z,13.33
2023-04-19T12:14:22.173Z,13.53
2023-04-19T12:17:11.750Z,13.47
2023-04-19T12:19:46.389Z,13.44
2023-04-19T12:22:24.315Z,13.39
2023-04-19T12:24:53.782Z,13.42
2023-04-19T12:27:21.607Z,13.42
2023-04-19T12:29:48.889Z,13.38
2023-04-19T12:32:16.570Z,13.32
2023-04-19T12:34:44.556Z,13.32
2023-04-19T12:37:12.209Z,13.19
2023-04-19T12:39:39.495Z,13.16
2023-04-19T12:42:07.163Z,13.18
2023-04-19T12:44:34.411Z,13.21
2023-04-19T12:47:02.282Z,13.01
2023-04-19T12:49:29.488Z,12.91
2023-04-19T12:51:57.581Z,12.90
2023-04-19T12:54:25.131Z,12.91
2023-04-19T12:56:53.417Z,12.78
2023-04-19T12:59:22.187Z,12.72
2023-04-19T13:01:50.017Z,12.63
2023-04-19T13:04:17.644Z,12.54
2023-04-19T13:06:46.084Z,12.50
2023-04-19T13:09:15.000Z,12.47
2023-04-19T13:11:43.084Z,12.49
2023-04-19T13:14:10.362Z,12.49
2023-04-19T13:16:37.986Z,12.41
2023-04-19T13:19:05.908Z,12.33
2023-04-19T13:21:33.452Z,12.31
2023-04-19T13:24:00.835Z,12.39
2023-04-19T13:26:28.570Z,12.45
2023-04-19T13:28:56.641Z,12.49
2023-04-19T13:31:25.683Z,12.59
2023-04-19T13:33:53.769Z,12.62
2023-04-19T13:36:22.287Z,12.60
2023-04-19T13:38:49.860Z,12.50
2023-04-19T13:41:17.433Z,12.17
2023-04-19T13:43:45.663Z,12.28
2023-04-19T13:46:13.605Z,12.17
2023-04-19T13:48:41.276Z,12.06
2023-04-19T13:51:09.054Z,12.06
2023-04-19T13:53:36.342Z,12.07
2023-04-19T13:56:04.267Z,12.07
2023-04-19T13:58:31.975Z,11.93
2023-04-19T14:00:59.606Z,11.90
2023-04-19T14:03:27.277Z,11.96
2023-04-19T14:05:55.340Z,11.87
2023-04-19T14:08:22.818Z,11.78
2023-04-19T14:10:51.012Z,11.67
2023-04-19T14:13:18.417Z,11.74
2023-04-19T14:15:46.520Z,11.59
2023-04-19T14:18:13.789Z,11.60
2023-04-19T14:20:41.484Z,11.40
2023-04-19T14:23:09.386Z,11.37
2023-04-19T14:25:37.057Z,11.46
2023-04-19T14:28:05.927Z,11.46
2023-04-19T14:30:33.623Z,11.19
2023-04-19T14:33:00.872Z,11.19
2023-04-19T14:35:28.794Z,11.13
2023-04-19T14:37:56.174Z,11.33
2023-04-19T14:40:24.467Z,11.42
2023-04-19T14:42:51.779Z,11.37
2023-04-19T14:45:20.062Z,11.51
2023-04-19T14:47:47.299Z,11.32
2023-04-19T14:50:14.875Z,11.45
2023-04-19T14:52:42.152Z,11.49
2023-04-19T14:55:11.206Z,11.51
2023-04-19T14:57:38.675Z,11.53
2023-04-19T15:00:08.084Z,11.52
2023-04-19T15:02:35.429Z,11.52
2023-04-19T15:05:03.301Z,11.53
2023-04-19T15:07:30.901Z,11.41
2023-04-19T15:09:58.817Z,11.24
2023-04-19T15:12:26.045Z,11.07
2023-04-19T15:14:53.568Z,10.94
2023-04-19T15:17:21.004Z,11.03
2023-04-19T15:19:48.641Z,11.01
2023-04-19T15:22:15.993Z,11.00
2023-04-19T15:24:43.583Z,11.08
2023-04-19T15:27:10.923Z,11.16
2023-04-19T15:29:39.708Z,11.19
2023-04-19T15:32:07.551Z,11.21
2023-04-19T15:34:35.162Z,10.89
2023-04-19T15:37:06.033Z,11.12
2023-04-19T15:39:33.646Z,11.03
2023-04-19T15:42:02.138Z,11.06
2023-04-19T15:44:30.490Z,11.11
2023-04-19T15:46:57.931Z,11.09
2023-04-19T15:49:25.612Z,11.11
2023-04-19T15:51:52.896Z,11.07
2023-04-19T15:54:22.080Z,11.05
2023-04-19T15:56:49.328Z,11.09
2023-04-19T15:59:17.107Z,11.13
2023-04-19T16:01:46.108Z,11.06
2023-04-19T16:04:16.000Z,11.05
2023-04-19T16:06:44.774Z,11.12
2023-04-19T16:09:14.360Z,11.17
2023-04-19T16:11:43.157Z,11.17
2023-04-19T16:14:10.892Z,11.12
2023-04-19T16:16:38.546Z,11.07
2023-04-19T16:19:08.053Z,11.08
2023-04-19T16:21:35.455Z,11.08
2023-04-19T16:24:02.999Z,10.99
2023-04-19T16:26:30.326Z,10.96
2023-04-19T16:28:59.383Z,10.87
2023-04-19T16:31:28.575Z,10.83
2023-04-19T16:33:58.182Z,10.85
2023-04-19T16:36:28.596Z,10.85
2023-04-19T16:38:57.837Z,10.87
2023-04-19T16:41:25.125Z,10.80
2023-04-19T16:43:55.499Z,10.85
2023-04-19T16:46:23.530Z,10.86
2023-04-19T16:48:52.032Z,10.84
2023-04-19T16:51:23.866Z,10.85
2023-04-19T16:53:51.710Z,10.82
2023-04-19T16:56:19.548Z,10.75
2023-04-19T16:58:47.684Z,10.75
2023-04-19T17:01:15.056Z,10.68
2023-04-19T17:03:42.934Z,10.68
2023-04-19T17:06:10.528Z,10.68
2023-04-19T17:08:42.069Z,10.74
2023-04-19T17:11:11.552Z,10.73
2023-04-19T17:13:39.932Z,10.75
2023-04-19T17:16:09.342Z,10.81
2023-04-19T17:18:37.694Z,10.84
2023-04-19T17:21:13.066Z,10.75
2023-04-19T17:23:40.777Z,10.79
2023-04-19T17:26:10.944Z,10.76
2023-04-19T17:28:39.378Z,10.70
2023-04-19T17:31:08.247Z,10.70
2023-04-19T17:33:37.478Z,10.62
2023-04-19T17:36:06.613Z,10.65
2023-04-19T17:38:34.227Z,10.70
2023-04-19T17:41:02.895Z,10.77
2023-04-19T17:43:30.418Z,10.75
2023-04-19T17:45:58.132Z,10.78
2023-04-19T17:48:25.748Z,10.78
2023-04-19T17:50:52.942Z,10.71
2023-04-19T17:53:20.631Z,10.84
2023-04-19T17:55:48.108Z,10.74
2023-04-19T17:58:15.720Z,10.78
2023-04-19T18:00:43.028Z,10.80
2023-04-19T18:03:11.350Z,10.72
2023-04-19T18:05:40.750Z,10.67
2023-04-19T18:08:08.859Z,10.69
2023-04-19T18:10:36.313Z,10.66
2023-04-19T18:13:03.873Z,10.69
2023-04-19T18:15:31.212Z,10.72
2023-04-19T18:18:01.038Z,10.74
2023-04-19T18:20:28.330Z,10.66
2023-04-19T18:22:55.910Z,10.74
2023-04-19T18:25:23.872Z,10.74
2023-04-19T18:27:53.014Z,10.67
2023-04-19T18:30:20.217Z,10.65
2023-04-19T18:32:48.351Z,10.43
2023-04-19T18:35:17.511Z,10.25
2023-04-19T18:37:47.253Z,10.36
2023-04-19T18:40:15.073Z,10.36
2023-04-19T18:42:42.600Z,10.42
2023-04-19T18:45:10.538Z,10.35
2023-04-19T18:47:38.184Z,10.40
2023-04-19T18:50:08.717Z,10.47
2023-04-19T18:52:37.841Z,10.62
2023-04-19T18:55:07.501Z,10.61
2023-04-19T18:57:35.864Z,10.63
2023-04-19T19:00:06.289Z,10.64
2023-04-19T19:02:36.392Z,10.71
2023-04-19T19:05:07.434Z,10.74
2023-04-19T19:07:37.403Z,10.75
2023-04-19T19:10:18.361Z,10.75
2023-04-19T19:12:47.782Z,10.71
2023-04-19T19:15:15.325Z,10.73
2023-04-19T19:17:43.668Z,10.80
2023-04-19T19:20:11.740Z,10.81
2023-04-19T19:22:40.280Z,10.82
2023-04-19T19:25:08.372Z,10.86
2023-04-19T19:27:36.054Z,10.82
2023-04-19T19:30:04.931Z,10.79
2023-04-19T19:32:32.487Z,10.83
2023-04-19T19:35:05.485Z,10.87
2023-04-19T19:37:35.037Z,10.91
2023-04-19T19:40:04.702Z,10.92
2023-04-19T19:42:35.093Z,10.91
2023-04-19T19:45:03.551Z,10.93
2023-04-19T19:47:35.214Z,10.92
2023-04-19T19:50:46.629Z,10.94
2023-04-19T19:52:54.293Z,10.92
2023-04-19T19:55:21.693Z,10.96
2023-04-19T19:58:21.029Z,10.99
2023-04-19T20:00:46.287Z,11.05
2023-04-19T20:03:32.802Z,11.05
2023-04-19T20:06:26.462Z,11.02
2023-04-19T20:08:52.552Z,11.00
2023-04-19T20:11:20.045Z,11.06
2023-04-19T20:13:47.596Z,10.98
2023-04-19T20:16:15.101Z,10.97
2023-04-19T20:18:44.106Z,10.96
2023-04-19T20:21:11.541Z,10.94
2023-04-19T20:23:39.671Z,10.96
2023-04-19T20:26:07.310Z,10.97
2023-04-19T20:28:35.349Z,10.72
2023-04-19T20:31:02.648Z,10.67
2023-04-19T20:33:30.243Z,10.52
2023-04-19T20:35:59.676Z,10.39
2023-04-19T20:38:27.242Z,10.50
2023-04-19T20:40:56.015Z,10.60
2023-04-19T20:43:23.531Z,10.65
2023-04-19T20:45:50.964Z,10.68
2023-04-19T20:48:18.589Z,10.64
2023-04-19T20:50:45.844Z,10.72
2023-04-19T20:53:13.431Z,10.69
2023-04-19T20:55:41.024Z,10.72
2023-04-19T20:58:08.543Z,10.73
2023-04-19T21:00:36.054Z,10.79
2023-04-19T21:03:06.617Z,10.71
2023-04-19T21:05:35.253Z,10.68
2023-04-19T21:08:03.226Z,10.64
2023-04-19T21:10:30.564Z,10.70
2023-04-19T21:12:58.172Z,10.73
2023-04-19T21:15:25.643Z,10.63
2023-04-19T21:17:53.271Z,10.54
2023-04-19T21:20:20.858Z,10.59
2023-04-19T21:22:48.777Z,10.63
2023-04-19T21:25:16.725Z,10.63
2023-04-19T21:27:44.390Z,10.51
2023-04-19T21:30:12.926Z,10.52
2023-04-19T21:32:40.603Z,10.48
2023-04-19T21:35:08.413Z,10.29
2023-04-19T21:37:37.602Z,10.25
2023-04-19T21:40:06.044Z,10.26
2023-04-19T21:42:33.680Z,10.16
2023-04-19T21:45:00.931Z,10.24
2023-04-19T21:47:28.432Z,10.25
2023-04-19T21:49:55.755Z,10.33
2023-04-19T21:52:23.313Z,10.26
2023-04-19T21:54:50.623Z,10.31
2023-04-19T21:57:22.077Z,10.33
2023-04-19T21:59:49.360Z,10.27
2023-04-19T22:02:17.375Z,10.18
2023-04-19T22:04:45.774Z,10.34
2023-04-19T22:07:13.337Z,10.43
2023-04-19T22:09:40.624Z,10.47
2023-04-19T22:12:09.771Z,10.55
2023-04-19T22:14:37.089Z,10.41
2023-04-19T22:17:05.731Z,10.39
2023-04-19T22:19:32.948Z,10.19
2023-04-19T22:22:00.575Z,10.26
2023-04-19T22:24:27.956Z,10.46
2023-04-19T22:26:55.925Z,10.43
2023-04-19T22:29:23.373Z,10.38
2023-04-19T22:31:51.021Z,10.38
2023-04-19T22:34:19.441Z,10.42
2023-04-19T22:36:48.156Z,10.40
2023-04-19T22:39:16.121Z,10.34
2023-04-19T22:41:44.170Z,10.30
2023-04-19T22:44:11.424Z,10.32
2023-04-19T22:46:39.095Z,10.32
2023-04-19T22:49:06.521Z,10.32
2023-04-19T22:51:34.248Z,10.36
2023-04-19T22:54:03.389Z,10.43
2023-04-19T22:56:30.947Z,10.54
2023-04-19T22:58:58.189Z,10.58
2023-04-19T23:01:25.710Z,10.63
2023-04-19T23:03:52.961Z,10.66
2023-04-19T23:06:20.797Z,10.72
2023-04-19T23:08:48.072Z,10.76
2023-04-19T23:11:15.691Z,10.81
2023-04-19T23:13:44.024Z,10.89
2023-04-19T23:16:12.006Z,10.86
2023-04-19T23:18:40.368Z,10.89
2023-04-19T23:21:07.956Z,10.90
2023-04-19T23:23:35.387Z,10.88
2023-04-19T23:26:02.959Z,10.85
2023-04-19T23:28:30.310Z,10.87
2023-04-19T23:30:57.902Z,10.86
2023-04-19T23:33:25.179Z,10.90
2023-04-19T23:35:52.836Z,10.97
2023-04-19T23:38:20.957Z,10.91
2023-04-19T23:40:48.461Z,10.93
2023-04-19T23:43:15.799Z,10.91
2023-04-19T23:45:43.376Z,10.91
2023-04-19T23:48:10.778Z,10.86
2023-04-19T23:50:38.366Z,10.77
2023-04-19T23:53:05.726Z,10.71
2023-04-19T23:55:33.332Z,10.76
2023-04-19T23:58:00.648Z,10.73
